sensor_id;sensor_type;location;lat;lon;timestamp;pressure;altitude;pressure_sealevel;temperature;humidity
35694;BME280;21812;55.536;37.664;2023-06-22T00:01:18;100020.50;;;15.55;52.45
35694;BME280;21812;55.536;37.664;2023-06-22T00:03:44;100013.16;;;15.69;53.08
35694;BME280;21812;55.536;37.664;2023-06-22T00:06:10;100017.50;;;15.70;53.10
35694;BME280;21812;55.536;37.664;2023-06-22T00:08:35;100004.91;;;15.63;53.27
35694;BME280;21812;55.536;37.664;2023-06-22T00:11:01;100014.50;;;15.91;52.88
35694;BME280;21812;55.536;37.664;2023-06-22T00:13:27;100015.78;;;16.14;53.75
35694;BME280;21812;55.536;37.664;2023-06-22T00:15:53;100010.38;;;16.64;54.42
35694;BME280;21812;55.536;37.664;2023-06-22T00:18:18;100011.44;;;16.81;51.13
35694;BME280;21812;55.536;37.664;2023-06-22T00:20:45;100013.34;;;16.56;48.59
35694;BME280;21812;55.536;37.664;2023-06-22T00:23:12;100009.28;;;15.96;49.24
35694;BME280;21812;55.536;37.664;2023-06-22T00:25:41;100021.69;;;15.66;51.55
35694;BME280;21812;55.536;37.664;2023-06-22T00:28:08;100002.69;;;15.92;54.60
35694;BME280;21812;55.536;37.664;2023-06-22T00:30:35;100011.44;;;16.38;54.04
35694;BME280;21812;55.536;37.664;2023-06-22T00:33:02;100000.44;;;16.14;49.79
35694;BME280;21812;55.536;37.664;2023-06-22T00:35:28;100012.06;;;16.15;53.32
35694;BME280;21812;55.536;37.664;2023-06-22T00:37:59;100018.59;;;16.26;53.62
35694;BME280;21812;55.536;37.664;2023-06-22T00:40:27;100014.66;;;16.47;53.08
35694;BME280;21812;55.536;37.664;2023-06-22T00:42:54;100011.88;;;16.78;52.83
35694;BME280;21812;55.536;37.664;2023-06-22T00:45:20;100007.97;;;16.74;50.33
35694;BME280;21812;55.536;37.664;2023-06-22T00:47:47;100014.09;;;16.63;51.28
35694;BME280;21812;55.536;37.664;2023-06-22T00:50:27;99990.78;;;16.32;50.10
35694;BME280;21812;55.536;37.664;2023-06-22T00:52:56;100030.22;;;15.94;49.65
35694;BME280;21812;55.536;37.664;2023-06-22T00:55:22;100021.50;;;15.60;51.20
35694;BME280;21812;55.536;37.664;2023-06-22T00:57:48;100023.75;;;15.18;52.76
35694;BME280;21812;55.536;37.664;2023-06-22T01:00:15;100022.75;;;15.19;53.48
35694;BME280;21812;55.536;37.664;2023-06-22T01:02:46;100019.47;;;15.49;55.49
35694;BME280;21812;55.536;37.664;2023-06-22T01:05:16;100008.94;;;15.48;52.10
35694;BME280;21812;55.536;37.664;2023-06-22T01:13:02;99989.19;;;15.60;53.92
35694;BME280;21812;55.536;37.664;2023-06-22T01:15:49;100015.56;;;16.15;53.90
35694;BME280;21812;55.536;37.664;2023-06-22T01:18:18;100023.50;;;15.78;52.62
35694;BME280;21812;55.536;37.664;2023-06-22T01:20:45;100020.16;;;15.83;53.76
35694;BME280;21812;55.536;37.664;2023-06-22T01:23:26;100025.66;;;16.20;54.14
35694;BME280;21812;55.536;37.664;2023-06-22T01:30:59;100016.94;;;17.12;51.57
35694;BME280;21812;55.536;37.664;2023-06-22T01:33:35;100002.09;;;17.03;50.67
35694;BME280;21812;55.536;37.664;2023-06-22T01:36:03;99982.78;;;16.87;49.95
35694;BME280;21812;55.536;37.664;2023-06-22T01:38:30;100012.47;;;16.80;50.30
35694;BME280;21812;55.536;37.664;2023-06-22T01:40:57;100027.81;;;16.61;50.51
35694;BME280;21812;55.536;37.664;2023-06-22T01:43:26;99958.50;;;16.25;51.57
35694;BME280;21812;55.536;37.664;2023-06-22T01:45:54;99968.63;;;16.48;50.82
35694;BME280;21812;55.536;37.664;2023-06-22T01:48:21;100011.63;;;16.43;49.56
35694;BME280;21812;55.536;37.664;2023-06-22T01:50:47;100020.16;;;16.33;51.28
35694;BME280;21812;55.536;37.664;2023-06-22T01:53:13;100009.69;;;16.00;50.76
35694;BME280;21812;55.536;37.664;2023-06-22T01:55:39;100020.13;;;15.90;51.32
35694;BME280;21812;55.536;37.664;2023-06-22T01:58:05;100011.81;;;15.91;52.05
35694;BME280;21812;55.536;37.664;2023-06-22T02:00:37;100011.59;;;16.18;53.92
35694;BME280;21812;55.536;37.664;2023-06-22T02:03:08;99978.00;;;16.46;53.78
35694;BME280;21812;55.536;37.664;2023-06-22T02:05:41;100001.41;;;17.07;52.96
35694;BME280;21812;55.536;37.664;2023-06-22T02:08:11;100004.84;;;17.33;51.81
35694;BME280;21812;55.536;37.664;2023-06-22T02:10:42;100013.06;;;17.68;50.40
35694;BME280;21812;55.536;37.664;2023-06-22T02:13:09;99966.91;;;17.28;51.04
35694;BME280;21812;55.536;37.664;2023-06-22T02:15:38;100007.06;;;17.36;50.20
35694;BME280;21812;55.536;37.664;2023-06-22T02:18:04;100000.50;;;17.32;50.91
35694;BME280;21812;55.536;37.664;2023-06-22T02:20:50;99981.59;;;17.32;51.06
35694;BME280;21812;55.536;37.664;2023-06-22T02:23:15;100028.31;;;17.63;50.58
35694;BME280;21812;55.536;37.664;2023-06-22T02:25:41;100002.22;;;17.56;50.49
35694;BME280;21812;55.536;37.664;2023-06-22T02:28:10;100003.53;;;17.84;50.69
35694;BME280;21812;55.536;37.664;2023-06-22T02:30:38;99985.94;;;17.93;50.43
35694;BME280;21812;55.536;37.664;2023-06-22T02:33:07;99998.41;;;18.18;50.30
35694;BME280;21812;55.536;37.664;2023-06-22T02:35:33;99985.16;;;18.28;49.93
35694;BME280;21812;55.536;37.664;2023-06-22T02:38:03;100000.06;;;18.43;49.92
35694;BME280;21812;55.536;37.664;2023-06-22T02:40:29;100002.53;;;18.56;49.61
35694;BME280;21812;55.536;37.664;2023-06-22T02:42:57;99961.31;;;18.49;49.26
35694;BME280;21812;55.536;37.664;2023-06-22T02:45:31;99975.50;;;18.68;48.68
35694;BME280;21812;55.536;37.664;2023-06-22T02:47:57;99983.75;;;18.49;48.39
35694;BME280;21812;55.536;37.664;2023-06-22T02:50:23;99989.03;;;18.09;48.49
35694;BME280;21812;55.536;37.664;2023-06-22T02:52:49;99980.91;;;18.09;49.99
35694;BME280;21812;55.536;37.664;2023-06-22T02:55:15;99982.09;;;18.13;49.96
35694;BME280;21812;55.536;37.664;2023-06-22T02:57:47;99978.00;;;18.22;49.96
35694;BME280;21812;55.536;37.664;2023-06-22T03:00:14;99973.75;;;18.26;49.89
35694;BME280;21812;55.536;37.664;2023-06-22T03:02:46;99986.91;;;18.34;50.24
35694;BME280;21812;55.536;37.664;2023-06-22T03:05:12;99982.56;;;18.45;49.67
35694;BME280;21812;55.536;37.664;2023-06-22T03:07:40;99987.28;;;18.50;49.84
35694;BME280;21812;55.536;37.664;2023-06-22T03:10:12;99976.69;;;18.60;49.50
35694;BME280;21812;55.536;37.664;2023-06-22T03:12:38;99980.69;;;18.46;49.58
35694;BME280;21812;55.536;37.664;2023-06-22T03:15:09;99976.69;;;18.48;49.77
35694;BME280;21812;55.536;37.664;2023-06-22T03:17:36;99976.69;;;18.36;49.14
35694;BME280;21812;55.536;37.664;2023-06-22T03:20:05;99959.44;;;18.38;49.44
35694;BME280;21812;55.536;37.664;2023-06-22T03:22:37;99974.34;;;18.52;49.65
35694;BME280;21812;55.536;37.664;2023-06-22T03:25:03;99974.22;;;18.23;48.02
35694;BME280;21812;55.536;37.664;2023-06-22T03:27:31;99966.09;;;18.23;49.89
35694;BME280;21812;55.536;37.664;2023-06-22T03:29:57;99966.09;;;18.35;53.93
35694;BME280;21812;55.536;37.664;2023-06-22T03:32:24;99954.00;;;18.61;54.48
35694;BME280;21812;55.536;37.664;2023-06-22T03:34:50;99964.81;;;18.61;49.69
35694;BME280;21812;55.536;37.664;2023-06-22T03:37:16;99965.28;;;18.58;52.39
35694;BME280;21812;55.536;37.664;2023-06-22T03:39:42;99967.97;;;18.58;55.93
35694;BME280;21812;55.536;37.664;2023-06-22T03:42:08;99955.88;;;18.25;54.22
35694;BME280;21812;55.536;37.664;2023-06-22T03:44:35;99966.59;;;18.32;54.28
35694;BME280;21812;55.536;37.664;2023-06-22T03:47:04;99962.69;;;18.63;55.91
35694;BME280;21812;55.536;37.664;2023-06-22T03:49:29;99945.91;;;18.49;50.08
35694;BME280;21812;55.536;37.664;2023-06-22T03:51:55;99945.28;;;18.59;59.96
35694;BME280;21812;55.536;37.664;2023-06-22T03:54:21;99947.50;;;18.86;63.40
35694;BME280;21812;55.536;37.664;2023-06-22T03:56:47;99937.00;;;19.01;62.19
35694;BME280;21812;55.536;37.664;2023-06-22T03:59:13;99935.75;;;19.21;62.79
35694;BME280;21812;55.536;37.664;2023-06-22T04:01:38;99935.44;;;19.34;60.57
35694;BME280;21812;55.536;37.664;2023-06-22T04:04:05;99906.34;;;19.12;60.03
35694;BME280;21812;55.536;37.664;2023-06-22T04:06:31;99937.56;;;19.32;59.82
35694;BME280;21812;55.536;37.664;2023-06-22T04:08:56;99948.94;;;19.46;60.07
35694;BME280;21812;55.536;37.664;2023-06-22T04:11:22;99941.44;;;19.36;55.14
35694;BME280;21812;55.536;37.664;2023-06-22T04:13:48;99935.75;;;19.21;54.41
35694;BME280;21812;55.536;37.664;2023-06-22T04:16:14;99927.38;;;19.22;57.67
35694;BME280;21812;55.536;37.664;2023-06-22T04:18:40;99930.66;;;18.95;49.33
35694;BME280;21812;55.536;37.664;2023-06-22T04:21:07;99931.81;;;19.00;52.36
35694;BME280;21812;55.536;37.664;2023-06-22T04:23:33;99932.44;;;18.90;53.83
35694;BME280;21812;55.536;37.664;2023-06-22T04:25:58;99904.63;;;18.54;46.94
35694;BME280;21812;55.536;37.664;2023-06-22T04:28:24;99927.66;;;18.45;49.18
35694;BME280;21812;55.536;37.664;2023-06-22T04:30:50;99927.91;;;18.55;49.92
35694;BME280;21812;55.536;37.664;2023-06-22T04:33:17;99921.94;;;18.41;45.46
35694;BME280;21812;55.536;37.664;2023-06-22T04:35:45;99894.53;;;18.14;45.86
35694;BME280;21812;55.536;37.664;2023-06-22T04:38:12;99906.66;;;18.23;45.52
35694;BME280;21812;55.536;37.664;2023-06-22T04:40:39;99925.47;;;18.30;45.29
35694;BME280;21812;55.536;37.664;2023-06-22T04:43:05;99921.13;;;18.17;43.81
35694;BME280;21812;55.536;37.664;2023-06-22T04:45:32;99922.06;;;18.11;44.17
35694;BME280;21812;55.536;37.664;2023-06-22T04:47:59;99921.81;;;18.01;43.80
35694;BME280;21812;55.536;37.664;2023-06-22T04:50:24;99925.81;;;18.10;45.48
35694;BME280;21812;55.536;37.664;2023-06-22T04:52:50;99918.41;;;18.05;44.58
35694;BME280;21812;55.536;37.664;2023-06-22T04:55:17;99917.94;;;18.08;44.36
35694;BME280;21812;55.536;37.664;2023-06-22T04:57:47;99923.22;;;18.15;44.40
35694;BME280;21812;55.536;37.664;2023-06-22T05:00:18;99926.38;;;18.12;43.95
35694;BME280;21812;55.536;37.664;2023-06-22T05:02:49;99909.72;;;18.15;44.19
35694;BME280;21812;55.536;37.664;2023-06-22T05:05:15;99919.34;;;18.23;43.81
35694;BME280;21812;55.536;37.664;2023-06-22T05:07:43;99918.03;;;18.25;46.39
35694;BME280;21812;55.536;37.664;2023-06-22T05:10:12;99912.19;;;18.28;44.76
35694;BME280;21812;55.536;37.664;2023-06-22T05:12:39;99902.19;;;18.29;44.86
35694;BME280;21812;55.536;37.664;2023-06-22T05:15:09;99877.66;;;18.07;44.63
35694;BME280;21812;55.536;37.664;2023-06-22T05:17:36;99916.19;;;18.38;45.10
35694;BME280;21812;55.536;37.664;2023-06-22T05:20:02;99921.59;;;18.38;43.87
35694;BME280;21812;55.536;37.664;2023-06-22T05:22:32;99915.69;;;18.41;44.78
35694;BME280;21812;55.536;37.664;2023-06-22T05:24:57;99902.53;;;18.32;44.52
35694;BME280;21812;55.536;37.664;2023-06-22T05:27:23;99915.22;;;18.44;44.99
35694;BME280;21812;55.536;37.664;2023-06-22T05:29:49;99914.25;;;18.50;45.53
35694;BME280;21812;55.536;37.664;2023-06-22T05:32:14;99904.53;;;18.49;44.64
35694;BME280;21812;55.536;37.664;2023-06-22T05:34:40;99903.91;;;18.59;44.76
35694;BME280;21812;55.536;37.664;2023-06-22T05:37:06;99907.78;;;18.63;44.98
35694;BME280;21812;55.536;37.664;2023-06-22T05:39:32;99906.97;;;18.62;44.90
35694;BME280;21812;55.536;37.664;2023-06-22T05:41:57;99904.16;;;18.57;43.84
35694;BME280;21812;55.536;37.664;2023-06-22T05:44:23;99910.25;;;18.64;44.14
35694;BME280;21812;55.536;37.664;2023-06-22T05:46:49;99904.00;;;18.75;52.97
35694;BME280;21812;55.536;37.664;2023-06-22T05:49:15;99911.88;;;18.89;44.23
35694;BME280;21812;55.536;37.664;2023-06-22T05:51:42;99908.25;;;18.83;43.42
35694;BME280;21812;55.536;37.664;2023-06-22T05:54:08;99910.69;;;18.85;43.55
35694;BME280;21812;55.536;37.664;2023-06-22T05:56:34;99905.28;;;18.85;43.41
35694;BME280;21812;55.536;37.664;2023-06-22T05:59:00;99904.81;;;18.88;43.73
35694;BME280;21812;55.536;37.664;2023-06-22T06:01:26;99873.06;;;18.71;43.52
35694;BME280;21812;55.536;37.664;2023-06-22T06:03:52;99893.63;;;18.84;44.19
35694;BME280;21812;55.536;37.664;2023-06-22T06:06:19;99903.84;;;18.94;44.17
35694;BME280;21812;55.536;37.664;2023-06-22T06:08:48;99900.56;;;18.92;43.68
35694;BME280;21812;55.536;37.664;2023-06-22T06:11:14;99902.03;;;19.00;43.83
35694;BME280;21812;55.536;37.664;2023-06-22T06:13:40;99901.34;;;19.04;42.80
35694;BME280;21812;55.536;37.664;2023-06-22T06:16:06;99899.78;;;19.08;42.48
35694;BME280;21812;55.536;37.664;2023-06-22T06:18:31;99904.56;;;19.18;42.51
35694;BME280;21812;55.536;37.664;2023-06-22T06:20:57;99902.19;;;19.22;42.16
35694;BME280;21812;55.536;37.664;2023-06-22T06:23:23;99901.13;;;19.23;42.18
35694;BME280;21812;55.536;37.664;2023-06-22T06:25:48;99897.38;;;19.24;42.17
35694;BME280;21812;55.536;37.664;2023-06-22T06:28:14;99902.38;;;19.32;42.32
35694;BME280;21812;55.536;37.664;2023-06-22T06:30:40;99899.53;;;19.39;42.14
35694;BME280;21812;55.536;37.664;2023-06-22T06:33:06;99901.50;;;19.43;42.01
35694;BME280;21812;55.536;37.664;2023-06-22T06:35:36;99874.25;;;19.33;42.58
35694;BME280;21812;55.536;37.664;2023-06-22T06:38:03;99889.69;;;19.49;42.22
35694;BME280;21812;55.536;37.664;2023-06-22T06:40:28;99890.91;;;19.59;41.41
35694;BME280;21812;55.536;37.664;2023-06-22T06:42:54;99893.97;;;19.62;41.00
35694;BME280;21812;55.536;37.664;2023-06-22T06:45:22;99895.44;;;19.70;40.59
35694;BME280;21812;55.536;37.664;2023-06-22T06:47:49;99901.00;;;19.75;40.58
35694;BME280;21812;55.536;37.664;2023-06-22T06:50:16;99904.03;;;19.79;41.29
35694;BME280;21812;55.536;37.664;2023-06-22T06:52:42;99901.72;;;19.87;41.45
35694;BME280;21812;55.536;37.664;2023-06-22T06:55:09;99899.75;;;20.00;41.16
35694;BME280;21812;55.536;37.664;2023-06-22T06:57:39;99894.47;;;20.10;41.14
35694;BME280;21812;55.536;37.664;2023-06-22T07:00:07;99856.38;;;20.00;41.42
35694;BME280;21812;55.536;37.664;2023-06-22T07:02:35;99891.25;;;20.30;40.28
35694;BME280;21812;55.536;37.664;2023-06-22T07:05:01;99888.91;;;20.39;40.85
35694;BME280;21812;55.536;37.664;2023-06-22T07:07:30;99883.66;;;20.54;40.29
35694;BME280;21812;55.536;37.664;2023-06-22T07:09:56;99878.91;;;20.61;39.58
35694;BME280;21812;55.536;37.664;2023-06-22T07:12:21;99869.03;;;20.72;39.37
35694;BME280;21812;55.536;37.664;2023-06-22T07:14:47;99874.25;;;20.79;38.51
35694;BME280;21812;55.536;37.664;2023-06-22T07:17:13;99879.78;;;20.89;38.84
35694;BME280;21812;55.536;37.664;2023-06-22T07:19:38;99872.56;;;21.00;39.19
35694;BME280;21812;55.536;37.664;2023-06-22T07:22:04;99871.88;;;21.09;39.33
35694;BME280;21812;55.536;37.664;2023-06-22T07:24:30;99863.22;;;21.13;38.87
35694;BME280;21812;55.536;37.664;2023-06-22T07:26:56;99866.59;;;21.25;39.03
35694;BME280;21812;55.536;37.664;2023-06-22T07:29:23;99878.09;;;21.37;38.00
35694;BME280;21812;55.536;37.664;2023-06-22T07:31:50;99850.81;;;21.22;38.85
35694;BME280;21812;55.536;37.664;2023-06-22T07:34:17;99876.50;;;21.41;38.87
35694;BME280;21812;55.536;37.664;2023-06-22T07:36:44;99875.50;;;21.47;38.32
35694;BME280;21812;55.536;37.664;2023-06-22T07:39:10;99870.19;;;21.58;38.57
35694;BME280;21812;55.536;37.664;2023-06-22T07:41:35;99863.94;;;21.62;38.71
35694;BME280;21812;55.536;37.664;2023-06-22T07:44:04;99864.81;;;21.68;37.75
35694;BME280;21812;55.536;37.664;2023-06-22T07:46:32;99860.28;;;21.79;37.80
35694;BME280;21812;55.536;37.664;2023-06-22T07:48:57;99854.09;;;21.89;37.53
35694;BME280;21812;55.536;37.664;2023-06-22T07:51:25;99853.06;;;22.00;37.06
35694;BME280;21812;55.536;37.664;2023-06-22T07:53:51;99859.38;;;22.05;36.98
35694;BME280;21812;55.536;37.664;2023-06-22T07:56:16;99857.53;;;22.16;36.89
35694;BME280;21812;55.536;37.664;2023-06-22T07:58:46;99849.44;;;22.27;37.15
35694;BME280;21812;55.536;37.664;2023-06-22T08:01:14;99852.75;;;22.39;37.09
35694;BME280;21812;55.536;37.664;2023-06-22T08:03:40;99855.50;;;22.44;36.78
35694;BME280;21812;55.536;37.664;2023-06-22T08:06:06;99859.38;;;22.53;36.57
35694;BME280;21812;55.536;37.664;2023-06-22T08:08:35;99850.69;;;22.61;36.92
35694;BME280;21812;55.536;37.664;2023-06-22T08:11:01;99852.34;;;22.62;35.93
35694;BME280;21812;55.536;37.664;2023-06-22T08:13:26;99841.47;;;22.73;36.78
35694;BME280;21812;55.536;37.664;2023-06-22T08:15:52;99849.38;;;22.84;36.67
35694;BME280;21812;55.536;37.664;2023-06-22T08:18:18;99841.50;;;22.88;35.86
35694;BME280;21812;55.536;37.664;2023-06-22T08:20:43;99844.78;;;22.85;35.42
35694;BME280;21812;55.536;37.664;2023-06-22T08:23:09;99843.69;;;22.81;34.98
35694;BME280;21812;55.536;37.664;2023-06-22T08:25:35;99840.41;;;22.74;35.44
35694;BME280;21812;55.536;37.664;2023-06-22T08:28:03;99839.84;;;22.72;35.49
35694;BME280;21812;55.536;37.664;2023-06-22T08:30:28;99838.22;;;22.76;35.58
35694;BME280;21812;55.536;37.664;2023-06-22T08:32:54;99828.72;;;22.83;35.60
35694;BME280;21812;55.536;37.664;2023-06-22T08:35:22;99838.78;;;22.88;35.29
35694;BME280;21812;55.536;37.664;2023-06-22T08:37:47;99832.84;;;22.96;35.33
35694;BME280;21812;55.536;37.664;2023-06-22T08:40:18;99824.66;;;22.96;34.73
35694;BME280;21812;55.536;37.664;2023-06-22T08:42:46;99830.16;;;23.07;35.31
35694;BME280;21812;55.536;37.664;2023-06-22T08:45:12;99835.06;;;23.15;35.03
35694;BME280;21812;55.536;37.664;2023-06-22T08:47:39;99829.91;;;23.23;34.92
35694;BME280;21812;55.536;37.664;2023-06-22T08:50:06;99824.44;;;23.23;35.26
35694;BME280;21812;55.536;37.664;2023-06-22T08:52:33;99813.56;;;23.29;34.48
35694;BME280;21812;55.536;37.664;2023-06-22T08:54:59;99816.00;;;23.35;34.48
35694;BME280;21812;55.536;37.664;2023-06-22T08:57:25;99823.34;;;23.45;34.73
35694;BME280;21812;55.536;37.664;2023-06-22T08:59:51;99811.09;;;23.58;34.56
35694;BME280;21812;55.536;37.664;2023-06-22T09:02:18;99811.59;;;23.70;34.48
35694;BME280;21812;55.536;37.664;2023-06-22T09:04:47;99802.34;;;23.76;34.72
35694;BME280;21812;55.536;37.664;2023-06-22T09:07:14;99812.19;;;23.88;34.08
35694;BME280;21812;55.536;37.664;2023-06-22T09:09:40;99806.47;;;23.84;33.33
35694;BME280;21812;55.536;37.664;2023-06-22T09:12:06;99808.88;;;23.75;33.01
35694;BME280;21812;55.536;37.664;2023-06-22T09:14:32;99805.34;;;23.70;33.47
35694;BME280;21812;55.536;37.664;2023-06-22T09:16:57;99795.56;;;23.69;33.12
35694;BME280;21812;55.536;37.664;2023-06-22T09:19:23;99801.28;;;23.83;33.18
35694;BME280;21812;55.536;37.664;2023-06-22T09:21:49;99796.34;;;23.85;33.13
35694;BME280;21812;55.536;37.664;2023-06-22T09:24:14;99812.72;;;23.90;32.86
35694;BME280;21812;55.536;37.664;2023-06-22T09:26:40;99797.44;;;23.89;32.39
35694;BME280;21812;55.536;37.664;2023-06-22T09:29:06;99799.31;;;23.98;32.90
35694;BME280;21812;55.536;37.664;2023-06-22T09:31:32;99777.75;;;24.07;32.07
35694;BME280;21812;55.536;37.664;2023-06-22T09:33:57;99783.72;;;24.14;32.27
35694;BME280;21812;55.536;37.664;2023-06-22T09:36:23;99770.63;;;24.16;32.97
35694;BME280;21812;55.536;37.664;2023-06-22T09:38:49;99776.03;;;24.32;32.73
35694;BME280;21812;55.536;37.664;2023-06-22T09:41:24;99790.41;;;24.43;32.49
35694;BME280;21812;55.536;37.664;2023-06-22T09:43:50;99784.16;;;24.42;32.25
35694;BME280;21812;55.536;37.664;2023-06-22T09:46:16;99790.41;;;24.43;32.32
35694;BME280;21812;55.536;37.664;2023-06-22T09:48:43;99774.84;;;24.53;32.26
35694;BME280;21812;55.536;37.664;2023-06-22T09:51:08;99770.09;;;24.69;31.86
35694;BME280;21812;55.536;37.664;2023-06-22T09:53:34;99776.78;;;24.92;32.54
35694;BME280;21812;55.536;37.664;2023-06-22T09:56:01;99775.28;;;25.10;31.72
35694;BME280;21812;55.536;37.664;2023-06-22T09:58:27;99774.09;;;25.27;31.18
35694;BME280;21812;55.536;37.664;2023-06-22T10:00:53;99770.38;;;25.42;30.74
35694;BME280;21812;55.536;37.664;2023-06-22T10:03:20;99766.41;;;25.58;30.71
35694;BME280;21812;55.536;37.664;2023-06-22T10:05:46;99766.03;;;25.70;29.65
35694;BME280;21812;55.536;37.664;2023-06-22T10:08:12;99750.09;;;25.77;29.36
35694;BME280;21812;55.536;37.664;2023-06-22T10:10:38;99759.94;;;26.02;29.58
35694;BME280;21812;55.536;37.664;2023-06-22T10:13:10;99763.91;;;26.15;29.65
35694;BME280;21812;55.536;37.664;2023-06-22T10:15:36;99754.75;;;26.25;28.94
35694;BME280;21812;55.536;37.664;2023-06-22T10:18:02;99749.75;;;26.51;28.64
35694;BME280;21812;55.536;37.664;2023-06-22T10:20:31;99752.22;;;26.71;28.90
35694;BME280;21812;55.536;37.664;2023-06-22T10:22:57;99749.91;;;26.79;28.71
35694;BME280;21812;55.536;37.664;2023-06-22T10:25:23;99764.03;;;27.05;29.02
35694;BME280;21812;55.536;37.664;2023-06-22T10:27:48;99741.34;;;27.18;28.64
35694;BME280;21812;55.536;37.664;2023-06-22T10:30:15;99743.53;;;27.35;28.16
35694;BME280;21812;55.536;37.664;2023-06-22T10:32:42;99708.53;;;27.46;28.71
35694;BME280;21812;55.536;37.664;2023-06-22T10:35:09;99734.50;;;27.95;29.21
35694;BME280;21812;55.536;37.664;2023-06-22T10:37:39;99716.47;;;27.89;27.65
35694;BME280;21812;55.536;37.664;2023-06-22T10:40:05;99720.31;;;28.16;28.07
35694;BME280;21812;55.536;37.664;2023-06-22T10:42:31;99703.09;;;28.52;28.15
35694;BME280;21812;55.536;37.664;2023-06-22T10:44:57;99695.94;;;28.87;26.90
35694;BME280;21812;55.536;37.664;2023-06-22T10:47:22;99699.25;;;28.75;26.75
35694;BME280;21812;55.536;37.664;2023-06-22T10:49:48;99702.41;;;28.91;26.38
35694;BME280;21812;55.536;37.664;2023-06-22T10:52:14;99699.09;;;29.26;26.35
35694;BME280;21812;55.536;37.664;2023-06-22T10:54:41;99670.75;;;29.48;25.80
35694;BME280;21812;55.536;37.664;2023-06-22T10:57:06;99690.44;;;29.81;25.62
35694;BME280;21812;55.536;37.664;2023-06-22T10:59:32;99693.06;;;29.86;25.25
35694;BME280;21812;55.536;37.664;2023-06-22T11:01:58;99681.56;;;29.93;26.32
35694;BME280;21812;55.536;37.664;2023-06-22T11:04:25;99691.56;;;30.37;25.14
35694;BME280;21812;55.536;37.664;2023-06-22T11:06:50;99669.03;;;30.35;24.32
35694;BME280;21812;55.536;37.664;2023-06-22T11:09:17;99682.47;;;30.54;25.35
35694;BME280;21812;55.536;37.664;2023-06-22T11:11:50;99686.44;;;31.18;24.50
35694;BME280;21812;55.536;37.664;2023-06-22T11:14:19;99683.38;;;31.20;23.83
35694;BME280;21812;55.536;37.664;2023-06-22T11:16:45;99681.03;;;31.39;22.95
35694;BME280;21812;55.536;37.664;2023-06-22T11:19:12;99677.31;;;31.26;23.17
35694;BME280;21812;55.536;37.664;2023-06-22T11:21:38;99677.06;;;31.19;23.53
35694;BME280;21812;55.536;37.664;2023-06-22T11:24:04;99682.38;;;31.24;23.66
35694;BME280;21812;55.536;37.664;2023-06-22T11:26:30;99666.44;;;31.47;24.16
35694;BME280;21812;55.536;37.664;2023-06-22T11:28:57;99665.56;;;31.85;22.81
35694;BME280;21812;55.536;37.664;2023-06-22T11:31:24;99662.88;;;32.27;23.61
35694;BME280;21812;55.536;37.664;2023-06-22T11:33:49;99632.06;;;32.38;23.81
35694;BME280;21812;55.536;37.664;2023-06-22T11:36:15;99653.06;;;32.51;22.91
35694;BME280;21812;55.536;37.664;2023-06-22T11:38:42;99655.38;;;32.70;22.74
35694;BME280;21812;55.536;37.664;2023-06-22T11:41:09;99627.75;;;32.49;22.09
35694;BME280;21812;55.536;37.664;2023-06-22T11:43:35;99656.75;;;32.64;23.02
35694;BME280;21812;55.536;37.664;2023-06-22T11:46:03;99650.16;;;32.14;23.04
35694;BME280;21812;55.536;37.664;2023-06-22T11:48:30;99653.44;;;32.28;23.38
35694;BME280;21812;55.536;37.664;2023-06-22T11:50:55;99639.97;;;32.81;22.04
35694;BME280;21812;55.536;37.664;2023-06-22T11:53:24;99649.22;;;33.68;21.95
35694;BME280;21812;55.536;37.664;2023-06-22T11:55:50;99645.75;;;32.88;21.51
35694;BME280;21812;55.536;37.664;2023-06-22T11:58:16;99641.91;;;32.26;22.22
35694;BME280;21812;55.536;37.664;2023-06-22T12:00:41;99635.44;;;32.64;23.10
35694;BME280;21812;55.536;37.664;2023-06-22T12:03:07;99622.22;;;33.40;22.37
35694;BME280;21812;55.536;37.664;2023-06-22T12:05:34;99617.13;;;33.92;21.92
35694;BME280;21812;55.536;37.664;2023-06-22T12:08:00;99618.59;;;34.42;21.42
35694;BME280;21812;55.536;37.664;2023-06-22T12:10:26;99629.56;;;34.66;20.71
35694;BME280;21812;55.536;37.664;2023-06-22T12:12:55;99617.75;;;34.98;20.31
35694;BME280;21812;55.536;37.664;2023-06-22T12:15:21;99608.25;;;34.83;20.19
35694;BME280;21812;55.536;37.664;2023-06-22T12:17:46;99605.78;;;35.41;20.57
35694;BME280;21812;55.536;37.664;2023-06-22T12:20:13;99593.63;;;35.66;19.82
35694;BME280;21812;55.536;37.664;2023-06-22T12:22:40;99611.59;;;35.88;19.56
35694;BME280;21812;55.536;37.664;2023-06-22T12:25:07;99602.97;;;34.94;19.52
35694;BME280;21812;55.536;37.664;2023-06-22T12:27:33;99593.38;;;33.78;21.42
35694;BME280;21812;55.536;37.664;2023-06-22T12:29:59;99593.53;;;32.75;22.01
35694;BME280;21812;55.536;37.664;2023-06-22T12:32:25;99604.44;;;31.95;23.17
35694;BME280;21812;55.536;37.664;2023-06-22T12:34:51;99595.81;;;31.46;23.64
35694;BME280;21812;55.536;37.664;2023-06-22T12:37:16;99611.38;;;31.12;23.94
35694;BME280;21812;55.536;37.664;2023-06-22T12:39:43;99591.00;;;30.96;23.42
35694;BME280;21812;55.536;37.664;2023-06-22T12:42:09;99589.44;;;31.25;23.95
35694;BME280;21812;55.536;37.664;2023-06-22T12:44:35;99589.81;;;31.44;23.29
35694;BME280;21812;55.536;37.664;2023-06-22T12:47:01;99574.56;;;32.19;22.60
35694;BME280;21812;55.536;37.664;2023-06-22T12:49:26;99569.72;;;32.95;21.23
35694;BME280;21812;55.536;37.664;2023-06-22T12:51:52;99572.38;;;33.53;21.84
35694;BME280;21812;55.536;37.664;2023-06-22T12:54:18;99573.56;;;34.45;20.68
35694;BME280;21812;55.536;37.664;2023-06-22T12:56:44;99569.16;;;35.20;20.38